Time;durP1;ratioP1;P1;durP2;ratioP2;P2;SDS_P1;SDS_P2;PMS_P1;PMS_P2;Temp;Humidity;BMP_temperature;BMP_pressure;BME280_temperature;BME280_humidity;BME280_pressure;Samples;Min_cycle;Max_cycle;Signal;HPM_P1;HPM_P2
2022/09/20 00:00:38;;;;;;;1.4;1.3;;;;;;;;;;;;;
2022/09/20 00:03:03;;;;;;;3.2;1.4;;;;;;;;;;;;;
2022/09/20 00:05:28;;;;;;;1.8;1.5;;;;;;;;;;;;;
2022/09/20 00:07:53;;;;;;;2.5;1.6;;;;;;;;;;;;;
2022/09/20 00:10:21;;;;;;;1.8;1.4;;;;;;;;;;;;;
2022/09/20 00:12:46;;;;;;;1.5;1.3;;;;;;;;;;;;;
2022/09/20 00:15:11;;;;;;;1.4;1.2;;;;;;;;;;;;;
2022/09/20 00:17:36;;;;;;;2;1.2;;;;;;;;;;;;;
2022/09/20 00:20:01;;;;;;;2.3;1;;;;;;;;;;;;;
2022/09/20 00:22:29;;;;;;;1.3;0.9;;;;;;;;;;;;;
2022/09/20 00:24:54;;;;;;;3;1;;;;;;;;;;;;;
2022/09/20 00:27:20;;;;;;;2.3;1.1;;;;;;;;;;;;;
2022/09/20 00:29:45;;;;;;;2;1.1;;;;;;;;;;;;;
2022/09/20 00:32:12;;;;;;;2.5;1.1;;;;;;;;;;;;;
2022/09/20 00:37:02;;;;;;;1.6;1.1;;;;;;;;;;;;;
2022/09/20 00:39:30;;;;;;;2.2;1.1;;;;;;;;;;;;;
2022/09/20 00:41:55;;;;;;;2.9;1.6;;;;;;;;;;;;;
2022/09/20 00:44:20;;;;;;;2.4;1.5;;;;;;;;;;;;;
2022/09/20 00:46:46;;;;;;;2.7;1.4;;;;;;;;;;;;;
2022/09/20 00:49:12;;;;;;;2.8;1.1;;;;;;;;;;;;;
2022/09/20 00:51:37;;;;;;;1.1;1;;;;;;;;;;;;;
2022/09/20 00:54:03;;;;;;;2.5;1.3;;;;;;;;;;;;;
2022/09/20 00:56:28;;;;;;;1.9;1;;;;;;;;;;;;;
2022/09/20 00:58:53;;;;;;;1.8;0.9;;;;;;;;;;;;;
2022/09/20 01:01:18;;;;;;;1.1;0.9;;;;;;;;;;;;;
2022/09/20 01:03:45;;;;;;;2.5;0.8;;;;;;;;;;;;;
2022/09/20 01:06:10;;;;;;;1.7;0.9;;;;;;;;;;;;;
2022/09/20 01:08:36;;;;;;;1.6;1;;;;;;;;;;;;;
2022/09/20 01:11:01;;;;;;;2.1;0.9;;;;;;;;;;;;;
2022/09/20 01:13:26;;;;;;;1.3;0.9;;;;;;;;;;;;;
2022/09/20 01:15:51;;;;;;;2.1;1;;;;;;;;;;;;;
2022/09/20 01:18:17;;;;;;;1.9;1;;;;;;;;;;;;;
2022/09/20 01:20:42;;;;;;;1.5;1;;;;;;;;;;;;;
2022/09/20 01:23:07;;;;;;;2.3;1.1;;;;;;;;;;;;;
2022/09/20 01:25:32;;;;;;;2.5;0.9;;;;;;;;;;;;;
2022/09/20 01:27:57;;;;;;;1.8;1.1;;;;;;;;;;;;;
2022/09/20 01:30:22;;;;;;;3.6;1.1;;;;;;;;;;;;;
2022/09/20 01:32:49;;;;;;;2.6;1.4;;;;;;;;;;;;;
2022/09/20 01:35:14;;;;;;;2;0.9;;;;;;;;;;;;;
2022/09/20 01:37:39;;;;;;;2.4;1;;;;;;;;;;;;;
2022/09/20 01:40:04;;;;;;;1.3;0.9;;;;;;;;;;;;;
2022/09/20 01:42:31;;;;;;;1.8;1;;;;;;;;;;;;;
2022/09/20 01:44:56;;;;;;;4.3;1.5;;;;;;;;;;;;;
2022/09/20 01:47:23;;;;;;;1.7;1.1;;;;;;;;;;;;;
2022/09/20 01:49:48;;;;;;;2.3;1.2;;;;;;;;;;;;;
2022/09/20 01:52:13;;;;;;;1.8;1.1;;;;;;;;;;;;;
2022/09/20 01:56:03;;;;;;;3.8;1.2;;;;;;;;;;;;;
2022/09/20 01:58:28;;;;;;;1.9;1.4;;;;;;;;;;;;;
2022/09/20 02:00:53;;;;;;;1.7;1.1;;;;;;;;;;;;;
2022/09/20 02:03:20;;;;;;;1.1;0.9;;;;;;;;;;;;;
2022/09/20 02:05:45;;;;;;;3.2;1.1;;;;;;;;;;;;;
2022/09/20 02:08:10;;;;;;;1.6;0.8;;;;;;;;;;;;;
2022/09/20 02:10:37;;;;;;;2;1.8;;;;;;;;;;;;;
2022/09/20 02:13:02;;;;;;;3.2;2.1;;;;;;;;;;;;;
2022/09/20 02:15:30;;;;;;;4.3;2.3;;;;;;;;;;;;;
2022/09/20 02:17:55;;;;;;;5.5;3;;;;;;;;;;;;;
2022/09/20 02:20:21;;;;;;;3.1;2;;;;;;;;;;;;;
2022/09/20 02:22:46;;;;;;;1.9;1.4;;;;;;;;;;;;;
2022/09/20 02:25:12;;;;;;;2.3;1.4;;;;;;;;;;;;;
2022/09/20 02:27:37;;;;;;;2.4;1.6;;;;;;;;;;;;;
2022/09/20 02:30:02;;;;;;;2;1.2;;;;;;;;;;;;;
2022/09/20 02:32:27;;;;;;;3.5;1.4;;;;;;;;;;;;;
2022/09/20 02:34:52;;;;;;;1.9;1.3;;;;;;;;;;;;;
2022/09/20 02:37:20;;;;;;;9.6;1.7;;;;;;;;;;;;;
2022/09/20 02:39:46;;;;;;;3.5;1.3;;;;;;;;;;;;;
2022/09/20 02:42:12;;;;;;;2.5;1.2;;;;;;;;;;;;;
2022/09/20 02:44:38;;;;;;;3;1.1;;;;;;;;;;;;;
2022/09/20 02:47:02;;;;;;;1.4;1.1;;;;;;;;;;;;;
2022/09/20 02:49:27;;;;;;;2.4;1.2;;;;;;;;;;;;;
2022/09/20 02:51:52;;;;;;;4.2;1.2;;;;;;;;;;;;;
2022/09/20 02:56:47;;;;;;;2.2;1.1;;;;;;;;;;;;;
2022/09/20 02:59:12;;;;;;;1.8;0.9;;;;;;;;;;;;;
2022/09/20 03:01:37;;;;;;;1.3;1.1;;;;;;;;;;;;;
2022/09/20 03:04:02;;;;;;;2;1.3;;;;;;;;;;;;;
2022/09/20 03:06:28;;;;;;;2.3;1.1;;;;;;;;;;;;;
2022/09/20 03:08:52;;;;;;;2.2;1;;;;;;;;;;;;;
2022/09/20 03:11:18;;;;;;;2.5;1.1;;;;;;;;;;;;;
2022/09/20 03:13:43;;;;;;;2.7;1.4;;;;;;;;;;;;;
2022/09/20 03:16:08;;;;;;;2;1.2;;;;;;;;;;;;;
2022/09/20 03:18:34;;;;;;;2.6;1.1;;;;;;;;;;;;;
2022/09/20 03:21:00;;;;;;;2.6;1.2;;;;;;;;;;;;;
2022/09/20 03:23:25;;;;;;;1.3;1;;;;;;;;;;;;;
2022/09/20 03:25:50;;;;;;;2.2;1.3;;;;;;;;;;;;;
2022/09/20 03:28:15;;;;;;;2;1.2;;;;;;;;;;;;;
2022/09/20 03:30:41;;;;;;;1;0.9;;;;;;;;;;;;;
2022/09/20 03:33:06;;;;;;;4.3;1.9;;;;;;;;;;;;;
2022/09/20 03:35:31;;;;;;;2.1;1.5;;;;;;;;;;;;;
2022/09/20 03:37:56;;;;;;;4.1;2.3;;;;;;;;;;;;;
2022/09/20 03:40:21;;;;;;;3.8;2.5;;;;;;;;;;;;;
2022/09/20 03:42:46;;;;;;;3.5;2.1;;;;;;;;;;;;;
2022/09/20 03:45:12;;;;;;;6.1;3.2;;;;;;;;;;;;;
2022/09/20 03:47:37;;;;;;;5.3;2.8;;;;;;;;;;;;;
2022/09/20 03:50:02;;;;;;;3.3;2;;;;;;;;;;;;;
2022/09/20 03:52:27;;;;;;;4.2;2.1;;;;;;;;;;;;;
2022/09/20 03:54:52;;;;;;;3.5;1.7;;;;;;;;;;;;;
2022/09/20 03:57:18;;;;;;;3.8;1.6;;;;;;;;;;;;;
2022/09/20 03:59:43;;;;;;;2.6;1.7;;;;;;;;;;;;;
2022/09/20 04:02:40;;;;;;;2.1;1.3;;;;;;;5.94;89.2627;941.8541;;;;
2022/09/20 04:05:11;;;;;;;1.2;1.1;;;;;;;5.9;89.37891;941.8986;;;;
2022/09/20 04:07:37;;;;;;;2.4;1.3;;;;;;;5.67;90.5498;941.8953;;;;
2022/09/20 04:10:13;;;;;;;3.3;1.5;;;;;;;5.73;90.37109;941.9091;;;;
2022/09/20 04:12:37;;;;;;;2;1.6;;;;;;;5.55;91.22461;941.9447;;;;
2022/09/20 04:15:04;;;;;;;1.5;1.2;;;;;;;5.45;91.49707;941.8323;;;;
2022/09/20 04:17:33;;;;;;;2.7;1.2;;;;;;;5.37;92.04297;941.8828;;;;
2022/09/20 04:19:58;;;;;;;2.5;1.3;;;;;;;5.34;92.20508;941.8897;;;;
2022/09/20 04:22:28;;;;;;;2.8;1.4;;;;;;;5.37;92.06543;941.8909;;;;
2022/09/20 04:24:54;;;;;;;3.2;1.6;;;;;;;5.43;92.10156;941.9067;;;;
2022/09/20 04:27:29;;;;;;;3;1.5;;;;;;;5.59;91.58398;941.9152;;;;
2022/09/20 04:29:56;;;;;;;3.2;2;;;;;;;5.65;91.02148;941.9587;;;;
2022/09/20 04:32:25;;;;;;;4;3;;;;;;;5.68;90.66406;941.9177;;;;
2022/09/20 04:37:31;;;;;;;4.4;2.2;;;;;;;5.73;90.79785;941.9548;;;;
2022/09/20 04:39:56;;;;;;;5.2;2.2;;;;;;;5.8;90.30566;941.9147;;;;
2022/09/20 04:42:22;;;;;;;4;1.9;;;;;;;5.8;90.10352;941.9242;;;;
2022/09/20 04:44:51;;;;;;;2.2;1.2;;;;;;;5.75;90.35254;941.932;;;;
2022/09/20 04:47:43;;;;;;;2.8;1.1;;;;;;;5.59;91.21191;941.9722;;;;
2022/09/20 04:53:22;;;;;;;2.9;1.2;;;;;;;5.84;91.19531;941.9999;;;;
2022/09/20 04:55:51;;;;;;;2;1.1;;;;;;;5.86;90.84961;941.9611;;;;
2022/09/20 04:58:15;;;;;;;1.7;1.4;;;;;;;5.97;90.64844;941.9603;;;;
2022/09/20 05:00:50;;;;;;;2.8;1.3;;;;;;;6;90.1123;941.9501;;;;
2022/09/20 05:07:03;;;;;;;4.6;1.1;;;;;;;6.04;90.20996;941.9264;;;;
2022/09/20 05:09:28;;;;;;;7.4;4.6;;;;;;;6.06;90.23828;941.954;;;;
2022/09/20 05:12:56;;;;;;;873.9;544.5;;;;;;;6.16;89.68066;941.8424;;;;
2022/09/20 05:15:22;;;;;;;79.9;40.1;;;;;;;6.23;90.10449;941.9077;;;;
2022/09/20 05:20:23;;;;;;;3.5;1.7;;;;;;;6.39;89.31152;941.9487;;;;
2022/09/20 05:22:46;;;;;;;3.8;1.9;;;;;;;6.42;89.37402;941.8859;;;;
2022/09/20 05:25:13;;;;;;;3.3;1.8;;;;;;;6.41;89.21387;941.8667;;;;
2022/09/20 05:27:39;;;;;;;4.4;4;;;;;;;6.39;89.41504;941.9355;;;;
2022/09/20 05:30:05;;;;;;;3.7;3;;;;;;;6.27;90.16895;941.9372;;;;
2022/09/20 05:32:30;;;;;;;3.8;2.3;;;;;;;6.42;89.87305;941.9724;;;;
2022/09/20 05:35:01;;;;;;;5.6;2.2;;;;;;;6.52;89.10059;941.9863;;;;
2022/09/20 05:37:29;;;;;;;3;1.8;;;;;;;6.4;89.68652;941.9444;;;;
2022/09/20 05:39:59;;;;;;;3.9;1.6;;;;;;;6.32;90.1123;941.9894;;;;
2022/09/20 05:46:01;;;;;;;5.9;1.8;;;;;;;6.3;90.30078;941.9311;;;;
2022/09/20 05:48:26;;;;;;;3.2;1.9;;;;;;;6.33;90.06934;941.9732;;;;
2022/09/20 05:50:54;;;;;;;3.2;2;;;;;;;6.6;89.78711;941.9571;;;;
2022/09/20 05:53:20;;;;;;;6.6;3;;;;;;;6.41;89.40625;941.9973;;;;
2022/09/20 05:55:48;;;;;;;3.5;2.3;;;;;;;6.28;89.13086;942.0101;;;;
2022/09/20 05:58:13;;;;;;;5.2;2.3;;;;;;;6.42;88.93262;942.0085;;;;
2022/09/20 06:00:43;;;;;;;5.5;2.2;;;;;;;6.67;88.29297;942.0797;;;;
2022/09/20 06:03:09;;;;;;;3.3;1.8;;;;;;;6.78;87.63867;942.0647;;;;
2022/09/20 06:05:38;;;;;;;3.3;1.7;;;;;;;6.63;87.8916;942.0659;;;;
2022/09/20 06:08:07;;;;;;;3.6;1.9;;;;;;;6.62;88.13672;941.9698;;;;
2022/09/20 06:10:35;;;;;;;5.2;2.2;;;;;;;6.74;88.30957;942.0779;;;;
2022/09/20 06:13:01;;;;;;;4.4;2;;;;;;;7.08;88.27832;942.0117;;;;
2022/09/20 06:15:29;;;;;;;4.1;2.5;;;;;;;7.34;87.51465;942.0428;;;;
2022/09/20 06:18:00;;;;;;;3;1.7;;;;;;;7.4;85.23828;941.9454;;;;
2022/09/20 06:20:25;;;;;;;2.8;2;;;;;;;7.61;85.31348;942.0278;;;;
2022/09/20 06:22:51;;;;;;;4.2;1.7;;;;;;;7.59;83.77734;941.9944;;;;
2022/09/20 06:25:20;;;;;;;2.4;1.7;;;;;;;7.71;84.04004;942.0145;;;;
2022/09/20 06:27:46;;;;;;;6.1;2.1;;;;;;;7.84;85.23535;942.0047;;;;
2022/09/20 06:30:16;;;;;;;5;2.1;;;;;;;7.97;84.38574;942.0317;;;;
2022/09/20 06:32:41;;;;;;;5.3;2.2;;;;;;;8.08;84.07813;941.9911;;;;
2022/09/20 06:35:13;;;;;;;5.1;1.9;;;;;;;8.07;83.28223;942.0099;;;;
2022/09/20 06:42:35;;;;;;;3.6;1.8;;;;;;;8.17;82.62012;941.9942;;;;
2022/09/20 06:45:01;;;;;;;3.2;1.5;;;;;;;8.1;82.85547;941.9424;;;;
2022/09/20 06:47:27;;;;;;;2.5;1.5;;;;;;;8.24;82.66797;941.9042;;;;
2022/09/20 06:49:57;;;;;;;3.5;1.8;;;;;;;8.5;81.53613;941.8974;;;;
2022/09/20 06:52:21;;;;;;;1.9;1.3;;;;;;;8.87;79.62695;941.9149;;;;
2022/09/20 06:57:21;;;;;;;3;1.6;;;;;;;9.29;77.7002;941.9988;;;;
2022/09/20 06:59:46;;;;;;;1.9;1.2;;;;;;;9.37;77.03125;941.9846;;;;
2022/09/20 07:02:11;;;;;;;1.7;1;;;;;;;9.92;75.15723;941.9392;;;;
2022/09/20 07:04:43;;;;;;;2.4;1.4;;;;;;;9.84;74.60742;941.8328;;;;
2022/09/20 07:07:08;;;;;;;2.1;1.3;;;;;;;10.33;75.13672;941.9414;;;;
2022/09/20 07:09:37;;;;;;;3.7;1.9;;;;;;;10.65;72.68262;941.8904;;;;
2022/09/20 07:17:26;;;;;;;1.5;1.2;;;;;;;11.62;66.93848;941.8095;;;;
2022/09/20 07:19:51;;;;;;;2.7;1.4;;;;;;;12.13;69.22656;941.8906;;;;
2022/09/20 07:22:17;;;;;;;1.2;1.1;;;;;;;12.16;66.58496;941.8869;;;;
2022/09/20 07:25:11;;;;;;;1.2;1.1;;;;;;;12.6;66.95117;941.8975;;;;
2022/09/20 07:27:38;;;;;;;1.5;0.9;;;;;;;12.53;64.10742;941.7739;;;;
2022/09/20 07:30:03;;;;;;;1.2;0.8;;;;;;;13.16;62.57031;941.8211;;;;
2022/09/20 07:32:31;;;;;;;1.3;0.8;;;;;;;13.6;58.83789;941.8175;;;;
2022/09/20 07:34:56;;;;;;;2.5;1.2;;;;;;;13.68;62.51758;941.7805;;;;
2022/09/20 07:37:23;;;;;;;1.7;0.7;;;;;;;13.95;59.65527;941.699;;;;
2022/09/20 07:39:48;;;;;;;1.1;0.8;;;;;;;14.41;58.64746;941.7906;;;;
2022/09/20 07:42:15;;;;;;;2.7;0.9;;;;;;;14.68;56.28613;941.753;;;;
2022/09/20 07:44:42;;;;;;;0.5;0.4;;;;;;;14.21;56.92773;941.8061;;;;
2022/09/20 07:47:05;;;;;;;1.1;0.8;;;;;;;14.8;54.8252;941.7633;;;;
2022/09/20 07:49:30;;;;;;;1.7;0.7;;;;;;;15.73;53.3125;941.7726;;;;
2022/09/20 07:51:55;;;;;;;1;0.7;;;;;;;15.32;51.3584;941.7333;;;;
2022/09/20 07:54:20;;;;;;;0.8;0.6;;;;;;;14.16;54.29688;941.7797;;;;
2022/09/20 07:56:46;;;;;;;0.9;0.8;;;;;;;14.13;57.83887;941.7852;;;;
2022/09/20 07:59:12;;;;;;;1.6;0.8;;;;;;;14.05;56.90723;941.8091;;;;
2022/09/20 08:01:40;;;;;;;1.6;0.9;;;;;;;13.58;57.83594;941.7822;;;;
2022/09/20 08:04:05;;;;;;;4.2;0.8;;;;;;;13.8;59.52051;941.8049;;;;
2022/09/20 08:06:31;;;;;;;1.6;1;;;;;;;14.61;57.39551;941.7735;;;;
2022/09/20 08:08:56;;;;;;;0.9;0.6;;;;;;;14.62;54.00781;941.7875;;;;
2022/09/20 08:11:28;;;;;;;2.1;0.7;;;;;;;14.75;55.37305;941.7272;;;;
2022/09/20 08:13:52;;;;;;;2.5;1.1;;;;;;;14.8;55.30957;941.6799;;;;
2022/09/20 08:16:23;;;;;;;1.6;0.7;;;;;;;15.2;54.26465;941.6932;;;;
2022/09/20 08:18:52;;;;;;;2.4;1;;;;;;;16.73;49.99609;941.6583;;;;
2022/09/20 08:21:17;;;;;;;1.9;0.9;;;;;;;17.01;50.98926;941.7075;;;;
2022/09/20 08:23:44;;;;;;;3.9;0.9;;;;;;;17.93;48.43652;941.7067;;;;
2022/09/20 08:26:10;;;;;;;1.7;1.2;;;;;;;17.38;48.0166;941.6962;;;;
2022/09/20 08:28:43;;;;;;;1.4;1;;;;;;;16.23;50.03027;941.7836;;;;
2022/09/20 08:31:10;;;;;;;2.4;0.8;;;;;;;16.1;50.4209;941.7415;;;;
2022/09/20 08:33:36;;;;;;;1.6;1.1;;;;;;;16.24;49.07227;941.769;;;;
2022/09/20 08:36:00;;;;;;;2.2;1.1;;;;;;;16.02;50.62012;941.701;;;;
2022/09/20 08:38:30;;;;;;;1.9;1.1;;;;;;;15.84;51.98633;941.7644;;;;
2022/09/20 08:40:56;;;;;;;4.9;1.8;;;;;;;15.2;52.94922;941.7197;;;;
2022/09/20 08:43:20;;;;;;;2.4;1.5;;;;;;;14.78;54.13184;941.6975;;;;
2022/09/20 08:46:20;;;;;;;3.5;1.2;;;;;;;14.27;54;941.7377;;;;
2022/09/20 08:48:28;;;;;;;2.3;1.1;;;;;;;14.21;58.25195;941.7253;;;;
2022/09/20 08:50:55;;;;;;;1.9;1.2;;;;;;;14.4;59.25684;941.6648;;;;
2022/09/20 08:53:20;;;;;;;1.9;1;;;;;;;14.22;59.12891;941.7047;;;;
2022/09/20 08:55:48;;;;;;;1.2;0.8;;;;;;;14.28;57.55957;941.7056;;;;
2022/09/20 08:58:15;;;;;;;1.3;0.9;;;;;;;14.45;57.12109;941.6998;;;;
2022/09/20 09:00:41;;;;;;;1.9;0.9;;;;;;;14.3;58.0459;941.7015;;;;
2022/09/20 09:03:07;;;;;;;0.6;0.6;;;;;;;14.19;57.65137;941.6804;;;;
2022/09/20 09:05:33;;;;;;;1.7;0.8;;;;;;;13.96;59.2666;941.7134;;;;
2022/09/20 09:07:59;;;;;;;2.3;0.9;;;;;;;13.78;62.78418;941.7503;;;;
2022/09/20 09:10:24;;;;;;;3.2;1;;;;;;;13.57;61.0752;941.6989;;;;
2022/09/20 09:12:49;;;;;;;1.6;0.7;;;;;;;13.46;62.40527;941.7514;;;;
2022/09/20 09:15:18;;;;;;;2.4;1.1;;;;;;;13.43;62.72266;941.6761;;;;
2022/09/20 09:17:43;;;;;;;1.4;0.8;;;;;;;13.65;62.37402;941.7155;;;;
2022/09/20 09:20:14;;;;;;;2.1;0.9;;;;;;;13.67;61.86035;941.7349;;;;
2022/09/20 09:22:42;;;;;;;1.8;0.9;;;;;;;13.72;59.7168;941.7205;;;;
2022/09/20 09:25:07;;;;;;;2.6;1.3;;;;;;;13.85;57.88184;941.7163;;;;
2022/09/20 09:27:36;;;;;;;1.7;1.1;;;;;;;13.96;59.48535;941.7006;;;;
2022/09/20 09:30:00;;;;;;;2.3;1.1;;;;;;;14.08;58.94922;941.7003;;;;
2022/09/20 09:32:27;;;;;;;3;1.3;;;;;;;13.96;58.0459;941.6509;;;;
2022/09/20 09:34:51;;;;;;;1.9;0.9;;;;;;;13.85;61.12598;941.6219;;;;
2022/09/20 09:37:18;;;;;;;1.2;1;;;;;;;13.66;60.14648;941.6267;;;;
2022/09/20 09:39:43;;;;;;;3;1.1;;;;;;;13.75;61.05469;941.6222;;;;
2022/09/20 09:42:08;;;;;;;2.9;1.1;;;;;;;13.71;63.60352;941.6373;;;;
2022/09/20 09:44:34;;;;;;;1.5;1;;;;;;;13.68;61.19531;941.6348;;;;
2022/09/20 09:46:58;;;;;;;2.2;1.1;;;;;;;13.78;62.75;941.623;;;;
2022/09/20 09:49:27;;;;;;;3.1;1.2;;;;;;;13.79;62.2002;941.6039;;;;
2022/09/20 09:51:52;;;;;;;3.1;1.5;;;;;;;13.3;64.51953;941.6113;;;;
2022/09/20 09:54:19;;;;;;;5.3;1.4;;;;;;;13.34;66.55859;941.5714;;;;
2022/09/20 09:56:46;;;;;;;2;1.2;;;;;;;13.54;67.25684;941.6196;;;;
2022/09/20 09:59:09;;;;;;;2.5;1.3;;;;;;;13.81;64.93945;941.6111;;;;
2022/09/20 10:01:38;;;;;;;2.3;1.2;;;;;;;13.99;64.33594;941.6022;;;;
2022/09/20 10:04:01;;;;;;;1.8;1.3;;;;;;;14.35;62.25684;941.5686;;;;
2022/09/20 10:06:26;;;;;;;2.2;1;;;;;;;14.55;60.41699;941.5051;;;;
2022/09/20 10:08:51;;;;;;;1.6;0.9;;;;;;;14.25;62.66895;941.4949;;;;
2022/09/20 10:11:16;;;;;;;1.5;0.9;;;;;;;14.48;62.60938;941.4202;;;;
2022/09/20 10:13:42;;;;;;;2.2;1.2;;;;;;;14.9;59.80957;941.3705;;;;
2022/09/20 10:16:07;;;;;;;3.5;1.1;;;;;;;15.47;59.0791;941.3149;;;;
2022/09/20 10:18:32;;;;;;;1.7;0.8;;;;;;;16.4;55.22266;941.3025;;;;
2022/09/20 10:20:57;;;;;;;2.7;1;;;;;;;16.43;54.54492;941.1755;;;;
2022/09/20 10:23:22;;;;;;;4.2;1.3;;;;;;;15.88;55.5166;941.2614;;;;
2022/09/20 10:25:50;;;;;;;1.7;0.8;;;;;;;15.68;56.01074;941.2744;;;;
2022/09/20 10:28:18;;;;;;;2;0.9;;;;;;;15.56;55.67188;941.2672;;;;
2022/09/20 10:30:44;;;;;;;2.7;1;;;;;;;15.25;56.9248;941.216;;;;
2022/09/20 10:33:11;;;;;;;1.5;0.8;;;;;;;15.23;56.14941;941.1511;;;;
2022/09/20 10:35:34;;;;;;;1.3;0.8;;;;;;;15.27;55.68164;941.1606;;;;
2022/09/20 10:38:00;;;;;;;2;0.9;;;;;;;14.93;56.375;941.1756;;;;
2022/09/20 10:40:25;;;;;;;1.3;0.8;;;;;;;14.62;57.04004;941.192;;;;
2022/09/20 10:45:16;;;;;;;2.2;0.8;;;;;;;14.51;56.37891;941.199;;;;
2022/09/20 10:47:42;;;;;;;1.6;0.9;;;;;;;14.54;56.39551;941.1925;;;;
2022/09/20 10:50:07;;;;;;;2.7;0.9;;;;;;;14.27;58.7793;941.2378;;;;
2022/09/20 10:52:33;;;;;;;1.8;1.1;;;;;;;14.16;60.64063;941.2439;;;;
2022/09/20 10:55:02;;;;;;;1.2;0.9;;;;;;;13.89;61.77734;941.2713;;;;
2022/09/20 10:57:26;;;;;;;3.1;1.2;;;;;;;13.99;62.55078;941.2955;;;;
2022/09/20 10:59:52;;;;;;;1.1;1;;;;;;;14.03;62.75098;941.2463;;;;
2022/09/20 11:02:26;;;;;;;2.4;1.1;;;;;;;13.37;65.11621;941.3212;;;;
2022/09/20 11:04:53;;;;;;;3.4;1.5;;;;;;;13.39;65.45313;941.3516;;;;
2022/09/20 11:07:25;;;;;;;3;1.3;;;;;;;13.35;65.88281;941.3395;;;;
2022/09/20 11:09:51;;;;;;;2.6;1.4;;;;;;;13.22;66.70313;941.3102;;;;
2022/09/20 11:12:16;;;;;;;2.4;1.1;;;;;;;13.3;67.37012;941.4625;;;;
2022/09/20 11:14:41;;;;;;;3.6;1.3;;;;;;;13.39;66.87695;941.5333;;;;
2022/09/20 11:17:08;;;;;;;2.5;1.3;;;;;;;13.25;68.59082;941.5502;;;;
2022/09/20 11:19:33;;;;;;;2.9;1.6;;;;;;;12.68;71.56543;941.5652;;;;
2022/09/20 11:21:59;;;;;;;5;2.1;;;;;;;12.67;71.6543;941.4564;;;;
2022/09/20 11:24:24;;;;;;;4.8;1.8;;;;;;;12.89;70.25586;941.502;;;;
2022/09/20 11:26:49;;;;;;;3.8;1.5;;;;;;;13.04;69.34961;941.4919;;;;
2022/09/20 11:29:14;;;;;;;2.5;1.5;;;;;;;13.09;69.80762;941.5305;;;;
2022/09/20 11:31:39;;;;;;;3.8;1.7;;;;;;;13.27;69.29492;941.628;;;;
2022/09/20 11:34:04;;;;;;;3.6;1.5;;;;;;;13.3;69.27734;941.5601;;;;
2022/09/20 11:36:38;;;;;;;4.6;1.7;;;;;;;13.2;70.59473;941.5897;;;;
2022/09/20 11:39:08;;;;;;;4.5;1.9;;;;;;;12.67;72.05664;941.6778;;;;
2022/09/20 11:41:35;;;;;;;4.8;1.8;;;;;;;12.41;73.6748;941.6887;;;;
2022/09/20 11:44:05;;;;;;;3.7;2;;;;;;;12.62;73.39063;941.6998;;;;
2022/09/20 11:46:29;;;;;;;4.3;2.1;;;;;;;12.97;72.00293;941.7358;;;;
2022/09/20 11:48:59;;;;;;;5.2;2.3;;;;;;;13.06;71.17871;941.7637;;;;
2022/09/20 11:51:24;;;;;;;4.1;2;;;;;;;13.34;70.82227;941.6786;;;;
2022/09/20 11:53:53;;;;;;;4.1;2.1;;;;;;;13.44;70.3457;941.6553;;;;
2022/09/20 11:56:19;;;;;;;4.9;2.1;;;;;;;13.71;71.0332;941.6877;;;;
2022/09/20 11:58:45;;;;;;;3.7;2;;;;;;;13.43;72.5166;941.6777;;;;
2022/09/20 12:01:08;;;;;;;4.3;2.1;;;;;;;13.55;71.61719;941.6733;;;;
2022/09/20 12:03:35;;;;;;;2.9;1.9;;;;;;;13.5;70.36523;941.5818;;;;
2022/09/20 12:06:01;;;;;;;4;1.9;;;;;;;13.54;70.68359;941.5684;;;;
2022/09/20 12:08:29;;;;;;;3.9;1.9;;;;;;;13.81;68.54102;941.6279;;;;
2022/09/20 12:10:54;;;;;;;4.1;2;;;;;;;14.04;68.63574;941.5761;;;;
2022/09/20 12:13:20;;;;;;;4.6;1.7;;;;;;;13.62;70.26953;941.6401;;;;
2022/09/20 12:15:45;;;;;;;5.6;1.9;;;;;;;13.53;70.32715;941.5709;;;;
2022/09/20 12:18:14;;;;;;;3.9;2.2;;;;;;;13.72;68.74609;941.5989;;;;
2022/09/20 12:20:41;;;;;;;4.3;2.3;;;;;;;13.59;69.32227;941.5718;;;;
2022/09/20 12:23:03;;;;;;;6.4;2.1;;;;;;;13.46;69.16406;941.5906;;;;
2022/09/20 12:25:40;;;;;;;3.9;1.7;;;;;;;13.42;68.54883;941.5112;;;;
2022/09/20 12:28:08;;;;;;;4.1;2.2;;;;;;;13.5;68.74414;941.5715;;;;
2022/09/20 12:30:33;;;;;;;4.5;2.2;;;;;;;13.46;68.73926;941.457;;;;
2022/09/20 12:32:59;;;;;;;3.8;2.1;;;;;;;13.37;69.64355;941.5139;;;;
2022/09/20 12:35:26;;;;;;;3.3;1.6;;;;;;;13.3;70.47168;941.6;;;;
2022/09/20 12:37:52;;;;;;;3.7;2.1;;;;;;;13.2;69.84766;941.533;;;;
2022/09/20 12:40:17;;;;;;;4.3;1.9;;;;;;;13.19;70.33887;941.6584;;;;
2022/09/20 12:42:47;;;;;;;3.2;1.8;;;;;;;13.2;70.19238;941.6329;;;;
2022/09/20 12:45:18;;;;;;;4.3;2;;;;;;;13.01;70.34375;941.6145;;;;
2022/09/20 12:47:45;;;;;;;3.3;2.1;;;;;;;13.09;70.42578;941.6241;;;;
2022/09/20 12:52:52;;;;;;;5.3;2.8;;;;;;;13.06;72.05273;941.572;;;;
2022/09/20 12:55:01;;;;;;;3.6;2.3;;;;;;;13.32;72.11914;941.6281;;;;
2022/09/20 12:57:34;;;;;;;4.4;2.1;;;;;;;13.59;70.5293;941.5701;;;;
2022/09/20 12:59:56;;;;;;;4;1.7;;;;;;;13.56;69.375;941.6293;;;;
2022/09/20 13:02:21;;;;;;;5;1.9;;;;;;;13.65;70.65625;941.5483;;;;
2022/09/20 13:04:46;;;;;;;4.2;2.3;;;;;;;13.63;70.33008;941.5786;;;;
2022/09/20 13:07:12;;;;;;;4.1;1.9;;;;;;;13.82;69.71582;941.5586;;;;
2022/09/20 13:09:37;;;;;;;3;1.7;;;;;;;13.92;70.69922;941.5692;;;;
2022/09/20 13:12:04;;;;;;;2;1.7;;;;;;;14.03;67.66602;941.5328;;;;
2022/09/20 13:14:30;;;;;;;4.3;2;;;;;;;13.92;66.76367;941.5524;;;;
2022/09/20 13:16:54;;;;;;;3.6;2;;;;;;;13.89;67.08008;941.5931;;;;
2022/09/20 13:19:24;;;;;;;5.8;2.1;;;;;;;13.96;67.12695;941.5364;;;;
2022/09/20 13:21:47;;;;;;;3.1;2;;;;;;;14.02;66.53711;941.4872;;;;
2022/09/20 13:24:13;;;;;;;4.6;2.2;;;;;;;13.84;67.01563;941.4409;;;;
2022/09/20 13:26:41;;;;;;;3.5;2.5;;;;;;;13.77;66.60156;941.4973;;;;
2022/09/20 13:29:10;;;;;;;5.5;3.2;;;;;;;13.69;68.08594;941.4188;;;;
2022/09/20 13:31:36;;;;;;;4.6;2;;;;;;;13.9;67.93457;941.377;;;;
2022/09/20 13:34:02;;;;;;;3.9;1.9;;;;;;;13.97;66.52832;941.4267;;;;
2022/09/20 13:36:27;;;;;;;3.7;2.1;;;;;;;13.79;67.60645;941.5638;;;;
2022/09/20 13:38:56;;;;;;;4.6;2.4;;;;;;;13.8;68.18164;941.5502;;;;
2022/09/20 13:41:21;;;;;;;6.6;2.9;;;;;;;13.7;68.70703;941.5884;;;;
2022/09/20 13:44:32;;;;;;;3.8;2.1;;;;;;;13.45;70.09277;941.5441;;;;
2022/09/20 13:46:55;;;;;;;4.6;2.2;;;;;;;13.2;71.45508;941.6041;;;;
2022/09/20 13:49:22;;;;;;;3.8;2.6;;;;;;;12.93;72.62695;941.7053;;;;
2022/09/20 13:51:49;;;;;;;6.3;2.9;;;;;;;12.58;73.49902;941.6641;;;;
2022/09/20 13:54:14;;;;;;;3.9;2.5;;;;;;;12.33;75.04004;941.7441;;;;
2022/09/20 13:56:44;;;;;;;5.1;3.1;;;;;;;12.12;76.55957;941.7811;;;;
2022/09/20 13:59:09;;;;;;;5.5;2.9;;;;;;;12.11;77.07324;941.7977;;;;
2022/09/20 14:01:39;;;;;;;7.2;2.5;;;;;;;11.88;77.40039;941.801;;;;
2022/09/20 14:04:06;;;;;;;4.1;2.5;;;;;;;11.95;77.63086;941.8782;;;;
2022/09/20 14:06:37;;;;;;;4.4;2.6;;;;;;;12.06;77.05371;941.834;;;;
2022/09/20 14:09:06;;;;;;;6.1;2.9;;;;;;;12.16;77.43848;941.8126;;;;
2022/09/20 14:11:35;;;;;;;4.1;2.5;;;;;;;12.18;78.15234;941.8942;;;;
2022/09/20 14:13:58;;;;;;;4.7;2.7;;;;;;;12.28;76.46387;941.877;;;;
2022/09/20 14:16:28;;;;;;;3.8;2.6;;;;;;;12.28;77.39258;941.9233;;;;
2022/09/20 14:18:53;;;;;;;4.2;2.5;;;;;;;12.07;79.06055;941.9483;;;;
2022/09/20 14:21:18;;;;;;;4.3;2.9;;;;;;;12.22;79.91406;941.942;;;;
2022/09/20 14:23:44;;;;;;;6.1;2.9;;;;;;;12.22;80.37109;941.9196;;;;
2022/09/20 14:26:09;;;;;;;5;2.7;;;;;;;12.58;80.62109;941.9492;;;;
2022/09/20 14:28:34;;;;;;;4.1;2.5;;;;;;;12.88;80.85059;941.9088;;;;
2022/09/20 14:31:00;;;;;;;4;2.6;;;;;;;13.23;79.02051;941.9028;;;;
2022/09/20 14:33:25;;;;;;;5.2;2.5;;;;;;;13.22;76.84766;941.8804;;;;
2022/09/20 14:35:51;;;;;;;3.2;2.6;;;;;;;13.2;76.25684;941.844;;;;
2022/09/20 14:38:20;;;;;;;7.7;2.6;;;;;;;13.34;77.31641;941.7745;;;;
2022/09/20 14:40:44;;;;;;;4.6;2.9;;;;;;;13.47;76.28125;941.8354;;;;
2022/09/20 14:43:12;;;;;;;3.4;2.8;;;;;;;13.4;75.75098;941.8397;;;;
2022/09/20 14:45:38;;;;;;;3.7;2.5;;;;;;;13.58;74.03516;941.8046;;;;
2022/09/20 14:48:04;;;;;;;4;2.3;;;;;;;13.72;73.66895;941.8094;;;;
2022/09/20 14:50:28;;;;;;;4.1;2.4;;;;;;;13.78;72.88574;941.8591;;;;
2022/09/20 14:52:53;;;;;;;3.7;2.2;;;;;;;13.72;72.9209;941.8734;;;;
2022/09/20 14:55:18;;;;;;;4.8;2.4;;;;;;;13.92;73.23047;941.8742;;;;
2022/09/20 14:57:47;;;;;;;3.2;1.8;;;;;;;14.01;71.49609;941.8672;;;;
2022/09/20 15:00:11;;;;;;;5.6;2.8;;;;;;;13.98;72.18066;941.7455;;;;
2022/09/20 15:02:40;;;;;;;3.6;1.8;;;;;;;14.13;72.5625;941.7067;;;;
2022/09/20 15:05:15;;;;;;;4.1;2;;;;;;;14.18;68.57617;941.7781;;;;
2022/09/20 15:07:40;;;;;;;3.2;1.8;;;;;;;14.1;69.92188;941.782;;;;
2022/09/20 15:10:15;;;;;;;4.7;1.9;;;;;;;13.92;69.13379;941.7798;;;;
2022/09/20 15:12:40;;;;;;;2;1.6;;;;;;;13.79;70.80469;941.8144;;;;
2022/09/20 15:15:05;;;;;;;5.1;2.1;;;;;;;13.71;69.52637;941.8134;;;;
2022/09/20 15:17:30;;;;;;;4.2;1.9;;;;;;;13.61;70.87891;941.8016;;;;
2022/09/20 15:19:56;;;;;;;4;1.9;;;;;;;13.49;72.8125;941.7779;;;;
2022/09/20 15:22:20;;;;;;;3.2;2;;;;;;;13.29;75.74414;941.7703;;;;
2022/09/20 15:24:46;;;;;;;2.8;2.1;;;;;;;13.14;74.9834;941.873;;;;
2022/09/20 15:27:11;;;;;;;3.3;3;;;;;;;13.13;76.80664;941.9097;;;;
2022/09/20 15:29:37;;;;;;;4.8;2.9;;;;;;;13.14;77.25586;941.8306;;;;
2022/09/20 15:32:04;;;;;;;4.7;3.7;;;;;;;13.27;77.90039;941.8719;;;;
2022/09/20 15:34:31;;;;;;;4.6;2.6;;;;;;;13.35;76.81055;941.8754;;;;
2022/09/20 15:36:56;;;;;;;5;2.4;;;;;;;13.35;75.50195;941.8706;;;;
2022/09/20 15:39:23;;;;;;;4.4;2.7;;;;;;;13.29;75.64063;941.9431;;;;
2022/09/20 15:41:48;;;;;;;3.8;2;;;;;;;13.26;73.96973;941.9846;;;;
2022/09/20 15:44:15;;;;;;;3.6;2.1;;;;;;;13.11;73.77148;942.0272;;;;
2022/09/20 15:46:40;;;;;;;4.3;2.2;;;;;;;13.07;74.61523;941.9981;;;;
2022/09/20 15:49:09;;;;;;;5.2;2.7;;;;;;;13.03;74.61914;941.9228;;;;
2022/09/20 15:51:34;;;;;;;4.2;2.4;;;;;;;13.03;74.10254;941.9419;;;;
2022/09/20 15:54:02;;;;;;;4.3;2.7;;;;;;;13.09;74.95117;941.9742;;;;
2022/09/20 15:56:28;;;;;;;3.4;2.2;;;;;;;13.17;75.27344;941.9626;;;;
2022/09/20 15:58:57;;;;;;;2.7;2.1;;;;;;;13.21;75.59375;941.9324;;;;
2022/09/20 16:01:18;;;;;;;5.2;2.6;;;;;;;13.15;78.08691;941.957;;;;
2022/09/20 16:03:43;;;;;;;7.4;4.8;;;;;;;13.09;79.09863;941.9447;;;;
2022/09/20 16:06:08;;;;;;;5.4;3.3;;;;;;;13.03;79.87988;941.9827;;;;
2022/09/20 16:08:33;;;;;;;5.8;4;;;;;;;13.07;80.0127;941.9917;;;;
2022/09/20 16:10:58;;;;;;;4.5;3.5;;;;;;;13.04;80.50195;942.0323;;;;
2022/09/20 16:13:23;;;;;;;4.4;2.9;;;;;;;12.93;80.18164;942.1025;;;;
2022/09/20 16:15:57;;;;;;;5.4;4.2;;;;;;;12.66;80.98242;942.1091;;;;
2022/09/20 16:20:48;;;;;;;6.9;5.3;;;;;;;12.56;82.375;942.1456;;;;
2022/09/20 16:23:13;;;;;;;9;4.7;;;;;;;12.55;82.07324;942.12;;;;